Julio de Castilhos, Brazil
Current Conditions -  °F | °C
As of 1:00 PM on Tuesday 21 Oct 2014 (Local Time) from SBSM Reporting Station
Few Clouds Few Clouds  
Wind Chill: 70°   Ceiling: Unl
Heat Index: 70°   Visibility: 6mi
Dew Point: 55°   Wind: 10mph
Humidity: 60%   Direction: 120°ESE
Pressure: 30.18"   Gusts: NA
Location:  29.23°S, 53.68°W
Report Text: SBSM 211500Z 12009KT 9999 FEW020 21/13 Q1022
Loading
Personal Weather Stations






























Interactive Weather Map
Tropical Storm Tracking
New forecast layout! Learn more

10-Day Weather Forecast

Advertisements
Track Severe Weather on mobile